Other Surface Observations
Issued by NWS Great Falls, MT

Home | Current Version | Previous Version | Text Only | Print | Product List | Glossary On
Versions: 1 2 3 4 5 6 7 8 9 10 11 12 13 14 15 16 17 18 19 20 21 22 23 24 25 26 27 28 29 30 31 32 33 34 35 36 37 38 39 40 41 42 43 44 45 46 47 48 49 50
000
SXUS55 KTFX 271359
OSOTFX
AREA AWOS OBSERVATIONS
NATIONAL WEATHER SERVICE GREAT FALLS MT
0759 AM MDT TUE SEP 27 2016

METAR KPO1 271400Z AUTO 00000KT 10SM 06/04 A2999 RMK POPLAR
METAR K1S3 271400Z AUTO 00000KT 10SM 10/08 A3003 RMK FORSYTH
METAR KS71 271400Z AUTO 00000KT 05/05 A2996 RMK CHINOOK
METAR K38S 271400Z AUTO 00000KT 10SM 05/03 A3021 RMK DEER LODGE
METAR K3U3 271400Z AUTO 20005KT 10SM 11/03 A3019 RMK ANACONDA
METAR K6S5 271400Z AUTO 00000KT 10SM 07/04 A3015 RMK HAMILTON
METAR KS59 271400Z AUTO 00000KT 10SM 04/04 A3005 RMK LIBBY
METAR K88M 271400Z AUTO 00000KT 10SM 08/06 A3002 RMK EUREKA



USA.gov is the U.S. government's official web portal to all federal, state and local government web resources and services.